Time;durP1;ratioP1;P1;durP2;ratioP2;P2;SDS_P1;SDS_P2;PMS_P1;PMS_P2;Temp;Humidity;BMP_temperature;BMP_pressure;BME280_temperature;BME280_humidity;BME280_pressure;Samples;Min_cycle;Max_cycle;Signal;HPM_P1;HPM_P2
2021/07/09 00:02:02;;;;;;;1.20;0.93;;;;;;;20.88;48.48;100113.69;4936222;29;20050;-91
2021/07/09 00:04:29;;;;;;;0.77;0.77;;;;;;;20.83;48.83;100119.41;4936683;29;20446;-88
2021/07/09 00:06:56;;;;;;;0.90;0.80;;;;;;;21.20;48.79;100115.88;4936314;29;20431;-88
2021/07/09 00:09:24;;;;;;;1.20;0.80;;;;;;;20.98;48.77;100119.75;4933486;29;20063;-88
2021/07/09 00:11:53;;;;;;;0.75;0.73;;;;;;;21.08;48.80;100106.44;4928754;29;20103;-89
2021/07/09 00:14:29;;;;;;;1.45;1.00;;;;;;;21.15;48.31;100107.53;4935832;29;20058;-89
2021/07/09 00:16:57;;;;;;;0.70;0.70;;;;;;;20.85;48.99;100117.44;4936454;29;20126;-89
2021/07/09 00:19:25;;;;;;;1.65;0.88;;;;;;;21.29;48.87;100117.63;4935885;29;20104;-89
2021/07/09 00:21:52;;;;;;;0.73;0.70;;;;;;;21.49;48.16;100126.34;4936091;29;20054;-89
2021/07/09 00:24:19;;;;;;;1.13;0.80;;;;;;;21.44;48.67;100118.81;4935507;29;20443;-89
2021/07/09 00:26:46;;;;;;;4.35;1.27;;;;;;;21.63;47.98;100117.88;4936194;29;20065;-89
2021/07/09 00:29:13;;;;;;;0.70;0.70;;;;;;;21.20;48.11;100115.88;4936202;29;20490;-89
2021/07/09 00:31:40;;;;;;;0.95;0.80;;;;;;;20.88;49.56;100114.50;4936687;29;20047;-90
2021/07/09 00:34:08;;;;;;;0.85;0.80;;;;;;;20.65;49.50;100123.78;4936610;29;20046;-90
2021/07/09 00:36:35;;;;;;;0.98;0.80;;;;;;;20.44;50.57;100125.75;4935970;29;20053;-90
2021/07/09 00:39:07;;;;;;;2.35;0.80;;;;;;;20.58;50.77;100120.88;4935376;29;20050;-89
2021/07/09 00:41:35;;;;;;;3.67;0.98;;;;;;;20.53;50.92;100127.59;4936484;29;20044;-89
2021/07/09 00:44:04;;;;;;;2.70;0.70;;;;;;;20.90;50.39;100117.84;4944499;29;20051;-89
2021/07/09 00:46:37;;;;;;;3.38;1.33;;;;;;;20.42;51.42;100108.22;4946613;29;20141;-88
2021/07/09 00:49:06;;;;;;;0.90;0.90;;;;;;;20.53;51.31;100101.94;4947680;29;20055;-89
2021/07/09 00:51:34;;;;;;;1.00;0.90;;;;;;;20.44;51.91;100113.34;4946931;29;20071;-89
2021/07/09 00:54:01;;;;;;;1.50;0.88;;;;;;;20.40;51.97;100102.22;4952687;29;20510;-89
2021/07/09 00:56:30;;;;;;;4.25;1.27;;;;;;;20.22;52.56;100103.09;4947777;29;20073;-89
2021/07/09 00:58:58;;;;;;;2.60;0.77;;;;;;;20.37;52.19;100099.03;4946213;29;20052;-89
2021/07/09 01:01:25;;;;;;;0.88;0.80;;;;;;;20.37;52.06;100097.22;4942361;29;20051;-89
2021/07/09 01:03:52;;;;;;;0.90;0.80;;;;;;;20.15;52.48;100092.25;4944661;29;20048;-90
2021/07/09 01:06:18;;;;;;;0.93;0.93;;;;;;;20.18;52.42;100091.94;4938056;29;20058;-91
2021/07/09 01:08:47;;;;;;;1.85;0.88;;;;;;;20.47;51.76;100091.94;4932419;29;20048;-90
2021/07/09 01:11:14;;;;;;;1.48;0.98;;;;;;;20.29;52.00;100090.94;4935614;29;20130;-90
2021/07/09 01:13:41;;;;;;;3.95;1.02;;;;;;;20.37;51.84;100101.69;4933865;29;20574;-90
2021/07/09 01:16:09;;;;;;;1.45;1.13;;;;;;;20.87;50.98;100101.38;4935531;29;20047;-90
2021/07/09 01:18:37;;;;;;;2.30;1.13;;;;;;;20.83;50.97;100097.38;4935469;29;20056;-90
2021/07/09 01:21:09;;;;;;;1.45;1.00;;;;;;;20.98;50.32;100108.31;4935389;29;20047;-90
2021/07/09 01:23:38;;;;;;;1.92;1.00;;;;;;;21.02;50.03;100107.88;4935592;29;20048;-90
2021/07/09 01:26:06;;;;;;;1.20;1.10;;;;;;;20.67;50.44;100122.66;4935634;29;20406;-90
2021/07/09 01:28:33;;;;;;;2.40;1.33;;;;;;;19.94;52.79;100152.44;4934927;29;20083;-90
2021/07/09 01:31:01;;;;;;;1.10;1.00;;;;;;;19.53;55.14;100155.13;4934168;29;20459;-90
2021/07/09 01:33:28;;;;;;;3.22;1.02;;;;;;;19.43;55.88;100180.69;4929714;29;20040;-90
2021/07/09 01:35:55;;;;;;;1.55;1.20;;;;;;;19.30;55.87;100167.72;4933789;29;20058;-90
2021/07/09 01:38:22;;;;;;;1.30;1.10;;;;;;;18.96;56.89;100176.91;4934324;29;20051;-90
2021/07/09 01:40:49;;;;;;;1.45;1.23;;;;;;;19.27;56.31;100162.69;4935024;29;20088;-91
2021/07/09 01:43:16;;;;;;;9.90;1.77;;;;;;;19.31;56.18;100156.19;4935553;29;20099;-89
2021/07/09 01:45:43;;;;;;;1.05;1.00;;;;;;;19.48;55.62;100152.03;4933824;29;20062;-90
2021/07/09 01:48:10;;;;;;;1.02;0.98;;;;;;;19.78;54.77;100148.50;4935455;29;20059;-89
2021/07/09 01:50:37;;;;;;;1.88;1.00;;;;;;;19.79;54.53;100144.06;4937110;29;20035;-90
2021/07/09 01:53:04;;;;;;;1.52;0.80;;;;;;;19.87;54.66;100146.84;4939150;29;20047;-90
2021/07/09 01:55:31;;;;;;;1.23;1.13;;;;;;;19.88;54.47;100141.41;4938720;29;20481;-89
2021/07/09 01:57:58;;;;;;;1.10;1.00;;;;;;;19.91;54.18;100136.81;4938781;29;20048;-89
2021/07/09 02:00:26;;;;;;;1.80;1.58;;;;;;;20.07;54.06;100134.44;4937943;29;20059;-89
2021/07/09 02:02:53;;;;;;;1.35;1.25;;;;;;;20.05;54.07;100136.41;4928953;29;20066;-89
2021/07/09 02:05:22;;;;;;;4.13;1.63;;;;;;;19.97;54.44;100139.72;4919964;29;20044;-89
2021/07/09 02:07:54;;;;;;;3.67;1.23;;;;;;;20.17;53.84;100127.34;4932060;29;20335;-92
2021/07/09 02:10:24;;;;;;;1.17;1.08;;;;;;;20.04;54.26;100121.50;4921110;29;20052;-91
2021/07/09 02:12:54;;;;;;;1.70;1.10;;;;;;;19.79;54.60;100120.25;4920088;29;20048;-91
2021/07/09 02:15:34;;;;;;;5.43;1.50;;;;;;;19.67;55.46;100113.44;4920047;29;20111;-92
2021/07/09 02:18:01;;;;;;;3.42;1.42;;;;;;;19.66;55.29;100112.59;4920372;29;20045;-91
2021/07/09 02:20:28;;;;;;;2.15;1.55;;;;;;;19.27;56.36;100114.28;4919555;29;20464;-87
2021/07/09 02:22:57;;;;;;;2.42;1.60;;;;;;;19.44;56.65;100110.16;4919214;29;20124;-87
2021/07/09 02:25:24;;;;;;;3.72;1.70;;;;;;;19.64;56.49;100106.59;4919327;29;20521;-86
2021/07/09 02:27:53;;;;;;;1.77;1.15;;;;;;;19.52;57.07;100105.03;4918992;29;20048;-87
2021/07/09 02:30:21;;;;;;;1.27;1.17;;;;;;;19.77;56.70;100099.25;4919846;29;20139;-87
2021/07/09 02:32:49;;;;;;;2.83;1.92;;;;;;;20.03;55.42;100093.38;4937791;29;20048;-87
2021/07/09 02:35:22;;;;;;;1.90;1.30;;;;;;;20.62;53.24;100092.31;4938299;29;20047;-86
2021/07/09 02:37:49;;;;;;;3.95;1.52;;;;;;;20.63;52.40;100093.97;4938661;29;20106;-86
2021/07/09 02:40:19;;;;;;;1.50;1.15;;;;;;;20.54;51.72;100082.41;4938146;29;20052;-87
2021/07/09 02:42:48;;;;;;;4.57;1.33;;;;;;;20.65;51.37;100090.19;4938120;29;20098;-89
2021/07/09 02:45:16;;;;;;;1.58;1.10;;;;;;;20.80;51.10;100087.06;4938322;29;20094;-89
2021/07/09 02:47:44;;;;;;;1.40;1.25;;;;;;;20.98;50.55;100084.47;4945652;29;20058;-89
2021/07/09 02:50:15;;;;;;;1.33;1.05;;;;;;;20.79;51.61;100085.41;4946688;29;20035;-89
2021/07/09 02:52:42;;;;;;;3.58;1.20;;;;;;;20.86;52.23;100089.13;4948680;29;20040;-89
2021/07/09 02:55:10;;;;;;;1.38;1.10;;;;;;;20.90;51.73;100083.38;4952671;29;20131;-88
2021/07/09 02:57:38;;;;;;;4.80;1.60;;;;;;;20.80;51.85;100082.59;4948670;29;20136;-89
2021/07/09 03:00:07;;;;;;;4.55;1.40;;;;;;;20.82;51.71;100083.28;4956973;29;20044;-88
2021/07/09 03:02:34;;;;;;;1.67;1.35;;;;;;;20.95;51.98;100080.31;4946860;29;20040;-86
2021/07/09 03:05:01;;;;;;;1.92;1.00;;;;;;;20.76;52.39;100083.03;4937473;29;20043;-82
2021/07/09 03:07:28;;;;;;;2.45;1.85;;;;;;;20.74;52.39;100082.34;4935645;29;20044;-83
2021/07/09 03:09:55;;;;;;;6.60;1.15;;;;;;;20.75;52.22;100081.38;4937759;29;20060;-83
2021/07/09 03:12:22;;;;;;;2.85;1.38;;;;;;;20.87;52.34;100083.66;4937071;29;20040;-82
2021/07/09 03:14:49;;;;;;;7.97;1.95;;;;;;;20.77;52.45;100082.03;4937405;29;20500;-82
2021/07/09 03:17:16;;;;;;;2.35;1.27;;;;;;;20.73;52.73;100086.00;4936878;29;20047;-82
2021/07/09 03:19:43;;;;;;;5.50;1.60;;;;;;;20.81;52.46;100076.31;4937444;29;20044;-82
2021/07/09 03:22:10;;;;;;;2.22;1.20;;;;;;;20.89;52.73;100084.38;4937090;29;20606;-82
2021/07/09 03:24:37;;;;;;;2.78;1.20;;;;;;;20.73;53.40;100081.53;4936279;29;20047;-82
2021/07/09 03:27:05;;;;;;;3.95;1.80;;;;;;;20.80;53.34;100082.59;4936851;29;20498;-82
2021/07/09 03:29:32;;;;;;;4.63;1.30;;;;;;;20.80;53.42;100081.75;4936861;29;20052;-81
2021/07/09 03:31:59;;;;;;;6.10;1.73;;;;;;;20.83;53.30;100084.97;4937302;29;20521;-84
2021/07/09 03:34:26;;;;;;;2.80;1.42;;;;;;;20.73;53.60;100083.34;4936496;29;20561;-84
2021/07/09 03:36:56;;;;;;;5.88;1.80;;;;;;;20.76;53.90;100086.50;4937164;29;20099;-84
2021/07/09 03:39:23;;;;;;;1.42;1.33;;;;;;;20.86;54.08;100087.31;4936952;29;20063;-85
2021/07/09 03:41:51;;;;;;;3.63;2.03;;;;;;;20.78;54.42;100092.53;4937628;29;20402;-84
2021/07/09 03:44:18;;;;;;;2.88;1.40;;;;;;;20.96;53.75;100102.34;4935343;29;20044;-83
2021/07/09 03:46:45;;;;;;;7.55;1.90;;;;;;;20.59;54.56;100119.06;4936782;29;20083;-83
2021/07/09 03:49:12;;;;;;;2.53;1.90;;;;;;;20.43;54.13;100122.28;4935342;29;20095;-83
2021/07/09 03:51:39;;;;;;;2.70;1.73;;;;;;;20.24;54.72;100123.16;4936694;29;20131;-83
2021/07/09 03:54:06;;;;;;;3.85;2.17;;;;;;;19.80;55.41;100135.97;4937029;29;20126;-83
2021/07/09 03:56:33;;;;;;;2.42;2.22;;;;;;;19.28;56.97;100140.63;4935449;29;20075;-87
2021/07/09 03:59:01;;;;;;;2.33;1.83;;;;;;;19.27;57.18;100135.44;4936737;29;20040;-81
2021/07/09 04:01:28;;;;;;;1.73;1.33;;;;;;;19.32;57.42;100131.41;4933520;29;20491;-81
2021/07/09 04:03:55;;;;;;;5.65;1.52;;;;;;;19.57;56.94;100130.09;4923646;29;20048;-81
2021/07/09 04:06:22;;;;;;;2.72;1.58;;;;;;;19.76;56.70;100126.66;4936124;29;20150;-82
2021/07/09 04:08:52;;;;;;;3.85;2.00;;;;;;;19.72;56.76;100133.19;4936234;29;20491;-81
2021/07/09 04:11:19;;;;;;;2.88;1.48;;;;;;;19.86;56.61;100130.13;4935052;29;20448;-80
2021/07/09 04:13:46;;;;;;;4.72;1.58;;;;;;;19.90;56.60;100125.41;4936020;29;20063;-81
2021/07/09 04:16:13;;;;;;;2.05;1.50;;;;;;;20.53;55.13;100132.88;4935700;29;20599;-82
2021/07/09 04:18:40;;;;;;;2.13;1.38;;;;;;;20.62;54.91;100132.03;4936223;29;20103;-83
2021/07/09 04:21:07;;;;;;;3.97;2.50;;;;;;;20.55;54.89;100131.75;4935255;29;20052;-80
2021/07/09 04:23:34;;;;;;;3.40;1.80;;;;;;;20.13;56.25;100128.59;4936184;29;20391;-80
2021/07/09 04:26:01;;;;;;;2.90;1.70;;;;;;;20.52;55.60;100133.88;4934518;29;20048;-80
2021/07/09 04:28:28;;;;;;;7.20;1.88;;;;;;;21.16;53.71;100131.25;4934911;29;20083;-80
2021/07/09 04:30:56;;;;;;;4.05;1.75;;;;;;;21.60;53.13;100143.84;4935808;29;20127;-80
2021/07/09 04:33:23;;;;;;;6.07;1.83;;;;;;;21.51;53.54;100134.97;4932978;29;20039;-81
2021/07/09 04:35:50;;;;;;;2.25;1.63;;;;;;;21.73;52.85;100139.00;4935668;29;20102;-81
2021/07/09 04:38:18;;;;;;;2.05;1.40;;;;;;;21.67;52.89;100135.13;4935481;29;20098;-81
2021/07/09 04:40:46;;;;;;;3.72;1.55;;;;;;;21.83;52.47;100139.75;4930764;29;20054;-82
2021/07/09 04:43:13;;;;;;;2.03;1.58;;;;;;;22.42;50.50;100148.91;4928970;29;20044;-82
2021/07/09 04:45:41;;;;;;;3.08;2.63;;;;;;;22.73;49.64;100154.59;4929858;29;20056;-81
2021/07/09 04:48:08;;;;;;;7.50;2.70;;;;;;;23.13;48.70;100145.19;4926792;29;20052;-82
2021/07/09 04:50:35;;;;;;;5.88;1.95;;;;;;;22.70;49.37;100148.78;4934961;29;20130;-82
2021/07/09 04:53:03;;;;;;;5.10;1.70;;;;;;;22.63;49.62;100155.69;4933763;29;20067;-81
2021/07/09 04:55:31;;;;;;;2.80;1.55;;;;;;;22.84;49.09;100158.78;4925088;29;20040;-82
2021/07/09 04:57:58;;;;;;;8.82;2.42;;;;;;;23.47;47.59;100155.75;4929867;29;20103;-82
2021/07/09 05:00:25;;;;;;;3.83;1.67;;;;;;;23.48;48.08;100148.63;4924940;29;20042;-81
2021/07/09 05:02:56;;;;;;;5.57;2.17;;;;;;;23.38;49.32;100154.06;4935183;29;20048;-81
2021/07/09 05:05:23;;;;;;;8.85;1.90;;;;;;;23.53;48.35;100159.59;4935300;29;20054;-81
2021/07/09 05:07:50;;;;;;;5.28;2.03;;;;;;;23.99;47.02;100158.22;4935301;29;20071;-81
2021/07/09 05:10:17;;;;;;;5.20;1.42;;;;;;;23.66;48.14;100156.53;4935204;29;20039;-81
2021/07/09 05:12:44;;;;;;;8.35;2.17;;;;;;;24.29;46.25;100162.06;4934602;29;20336;-81
2021/07/09 05:15:11;;;;;;;4.15;1.67;;;;;;;24.56;45.75;100163.56;4930875;29;20462;-82
2021/07/09 05:17:39;;;;;;;2.80;1.70;;;;;;;23.85;46.54;100160.69;4926175;29;20079;-81
2021/07/09 05:20:07;;;;;;;2.60;1.45;;;;;;;23.96;45.95;100163.88;4934870;29;20052;-80
2021/07/09 05:22:34;;;;;;;2.25;1.75;;;;;;;23.53;47.29;100167.59;4934931;29;20040;-82
2021/07/09 05:25:00;;;;;;;2.83;1.23;;;;;;;23.65;47.17;100165.47;4935070;29;20054;-80
2021/07/09 05:27:29;;;;;;;4.43;1.73;;;;;;;23.84;46.86;100159.03;4935072;29;20138;-82
2021/07/09 05:29:56;;;;;;;7.40;1.75;;;;;;;23.85;46.68;100171.34;4935280;29;20451;-80
2021/07/09 05:32:25;;;;;;;3.95;1.70;;;;;;;23.70;47.05;100157.84;4934918;29;20042;-81
2021/07/09 05:34:54;;;;;;;3.20;1.60;;;;;;;24.02;47.02;100155.25;4935472;29;20067;-79
2021/07/09 05:37:22;;;;;;;3.10;1.80;;;;;;;24.02;46.88;100160.56;4933811;29;20040;-79
2021/07/09 05:39:49;;;;;;;3.30;1.48;;;;;;;24.11;47.19;100161.38;4934766;29;20042;-82
2021/07/09 05:42:16;;;;;;;3.85;1.60;;;;;;;23.78;47.39;100150.72;4934671;29;20050;-81
2021/07/09 05:44:43;;;;;;;6.53;2.13;;;;;;;24.10;46.62;100156.25;4934981;29;20142;-81
2021/07/09 05:47:12;;;;;;;3.72;1.67;;;;;;;24.05;47.22;100162.06;4933071;29;20108;-84
2021/07/09 05:49:39;;;;;;;6.45;1.60;;;;;;;24.10;47.20;100159.72;4926003;29;20413;-84
2021/07/09 05:52:06;;;;;;;3.08;1.65;;;;;;;24.36;46.59;100156.94;4929482;29;20071;-86
2021/07/09 05:54:34;;;;;;;1.58;1.48;;;;;;;24.36;46.74;100158.75;4924942;29;20040;-86
2021/07/09 05:57:01;;;;;;;3.60;1.40;;;;;;;24.42;46.63;100161.56;4916143;29;20079;-86
2021/07/09 05:59:28;;;;;;;3.22;1.40;;;;;;;24.68;46.01;100157.88;4915663;29;20719;-86
2021/07/09 06:01:56;;;;;;;2.72;1.45;;;;;;;24.74;45.46;100158.03;4916098;29;20131;-92
2021/07/09 06:04:23;;;;;;;4.20;1.95;;;;;;;24.72;45.56;100164.53;4916130;29;20048;-91
2021/07/09 06:06:52;;;;;;;2.53;1.48;;;;;;;24.69;45.47;100152.38;4930152;29;20049;-87
2021/07/09 06:09:18;;;;;;;3.83;1.88;;;;;;;24.78;45.49;100158.53;4923227;29;20050;-88
2021/07/09 06:11:46;;;;;;;2.75;1.60;;;;;;;24.79;45.59;100162.84;4933855;29;20554;-88
2021/07/09 06:14:14;;;;;;;2.72;1.48;;;;;;;24.67;45.95;100164.22;4918964;29;20079;-79
2021/07/09 06:16:41;;;;;;;5.30;1.58;;;;;;;25.07;44.81;100166.78;4914801;29;20123;-82
2021/07/09 06:19:08;;;;;;;2.10;1.60;;;;;;;25.17;44.67;100173.75;4915528;29;20058;-83
2021/07/09 06:21:35;;;;;;;9.63;1.58;;;;;;;25.27;43.77;100177.06;4915832;29;20132;-85
2021/07/09 06:24:02;;;;;;;5.32;1.52;;;;;;;25.13;43.19;100167.09;4929835;29;20063;-85
2021/07/09 06:26:29;;;;;;;4.05;1.00;;;;;;;25.15;42.72;100167.78;4928813;29;20044;-84
2021/07/09 06:28:56;;;;;;;1.30;1.20;;;;;;;25.12;42.11;100165.44;4931213;29;20054;-83
2021/07/09 06:31:23;;;;;;;4.60;1.48;;;;;;;25.34;40.47;100159.34;4932712;29;20487;-86
2021/07/09 06:33:50;;;;;;;2.30;1.27;;;;;;;25.02;38.69;100158.44;4934685;29;20043;-84
2021/07/09 06:36:17;;;;;;;1.10;0.93;;;;;;;24.70;38.92;100155.88;4918741;29;20054;-84
2021/07/09 06:38:45;;;;;;;4.35;0.75;;;;;;;24.74;37.11;100157.19;4918824;29;20054;-83
2021/07/09 06:41:13;;;;;;;3.67;1.00;;;;;;;25.05;36.96;100149.28;4919204;29;20132;-83
2021/07/09 06:43:40;;;;;;;1.35;0.60;;;;;;;24.95;35.25;100152.13;4920649;29;20044;-83
2021/07/09 06:46:07;;;;;;;2.88;0.65;;;;;;;24.97;35.02;100149.28;4917666;29;20047;-84
2021/07/09 06:48:34;;;;;;;0.40;0.40;;;;;;;25.06;34.63;100149.13;4915783;29;20048;-84
2021/07/09 06:51:01;;;;;;;1.33;0.70;;;;;;;25.06;34.50;100157.13;4915551;29;20131;-84
2021/07/09 06:53:28;;;;;;;1.67;0.57;;;;;;;24.89;34.63;100155.50;4916715;29;20394;-84
2021/07/09 06:55:54;;;;;;;1.33;0.40;;;;;;;25.26;34.77;100156.72;4916744;29;20044;-84
2021/07/09 06:58:21;;;;;;;1.38;0.50;;;;;;;25.40;34.36;100150.63;4916820;29;20455;-85
2021/07/09 07:00:48;;;;;;;0.68;0.57;;;;;;;25.19;35.13;100155.72;4916931;29;20091;-83
2021/07/09 07:03:15;;;;;;;0.32;0.32;;;;;;;25.21;35.57;100164.41;4917756;29;20044;-82
2021/07/09 07:05:42;;;;;;;0.80;0.50;;;;;;;25.63;34.99;100160.53;4918306;29;20500;-82
2021/07/09 07:08:26;;;;;;;1.00;0.55;;;;;;;25.48;35.15;100166.59;4933027;29;20082;-84
2021/07/09 07:10:56;;;;;;;0.70;0.52;;;;;;;24.78;35.58;100162.03;4917946;29;20495;-81
2021/07/09 07:13:24;;;;;;;2.58;0.50;;;;;;;24.87;35.66;100162.81;4918485;29;20112;-81
2021/07/09 07:15:52;;;;;;;1.67;0.50;;;;;;;25.08;35.63;100165.78;4918424;29;20444;-81
2021/07/09 07:18:19;;;;;;;0.70;0.60;;;;;;;25.16;35.22;100172.09;4918546;29;20068;-82
2021/07/09 07:20:47;;;;;;;0.60;0.60;;;;;;;25.06;35.17;100167.78;4918502;29;20135;-81
2021/07/09 07:23:17;;;;;;;2.92;0.52;;;;;;;25.03;34.98;100162.75;4917959;29;20047;-81
2021/07/09 07:25:45;;;;;;;0.85;0.52;;;;;;;24.62;35.10;100162.06;4918611;29;20036;-81
2021/07/09 07:28:13;;;;;;;0.65;0.50;;;;;;;24.39;35.82;100169.06;4918121;29;20056;-80
2021/07/09 07:31:00;;;;;;;1.80;0.50;;;;;;;24.65;36.14;100153.72;4917987;29;20070;-79
2021/07/09 07:33:28;;;;;;;2.50;0.50;;;;;;;24.54;36.36;100162.06;4922109;29;20394;-80
2021/07/09 07:36:12;;;;;;;;;;;;;;;24.49;36.36;100173.22;4936199;29;20035;-78
2021/07/09 07:38:39;;;;;;;5.82;0.63;;;;;;;24.29;37.34;100174.56;4931549;29;20042;-78
2021/07/09 07:41:06;;;;;;;3.30;0.70;;;;;;;24.61;36.95;100167.53;4934777;29;20055;-81
2021/07/09 07:43:32;;;;;;;2.50;0.63;;;;;;;24.55;36.91;100172.56;4934534;29;20035;-83
2021/07/09 07:45:59;;;;;;;0.47;0.45;;;;;;;24.42;37.25;100169.56;4935146;29;20447;-79
2021/07/09 07:48:26;;;;;;;3.08;0.68;;;;;;;24.50;37.17;100168.72;4933672;29;20130;-80
2021/07/09 07:50:53;;;;;;;0.90;0.63;;;;;;;24.26;37.62;100174.88;4926890;29;20103;-83
2021/07/09 07:53:20;;;;;;;0.60;0.55;;;;;;;24.73;37.46;100171.53;4922701;29;20477;-82
2021/07/09 07:55:47;;;;;;;3.25;0.60;;;;;;;24.70;37.21;100169.19;4933586;29;20555;-82
2021/07/09 07:58:14;;;;;;;5.38;0.70;;;;;;;24.90;36.83;100164.31;4931344;29;20045;-82
2021/07/09 08:00:41;;;;;;;1.35;0.70;;;;;;;24.42;37.79;100163.41;4934125;29;20044;-83
2021/07/09 08:03:08;;;;;;;0.52;0.50;;;;;;;24.61;37.88;100164.88;4932928;29;20036;-83
2021/07/09 08:05:35;;;;;;;2.50;0.70;;;;;;;24.40;38.26;100166.25;4928316;29;20074;-81
2021/07/09 08:08:05;;;;;;;0.98;0.60;;;;;;;24.46;37.85;100160.25;4918808;29;20058;-82
2021/07/09 08:10:32;;;;;;;4.22;0.88;;;;;;;24.28;38.22;100167.53;4913854;29;20056;-84
2021/07/09 08:12:59;;;;;;;0.98;0.50;;;;;;;24.39;38.69;100163.75;4916098;29;20048;-83
2021/07/09 08:15:27;;;;;;;2.90;0.80;;;;;;;24.47;38.37;100167.22;4916428;29;20132;-82
2021/07/09 08:17:54;;;;;;;3.03;0.70;;;;;;;24.43;38.38;100165.06;4916041;29;20167;-83
2021/07/09 08:20:21;;;;;;;2.63;0.60;;;;;;;24.83;38.55;100166.84;4916149;29;20139;-82
2021/07/09 08:22:48;;;;;;;1.42;1.02;;;;;;;24.70;38.66;100167.34;4915860;29;20502;-82
2021/07/09 08:25:16;;;;;;;3.20;0.80;;;;;;;24.34;38.97;100166.88;4917332;29;20123;-83
2021/07/09 08:27:43;;;;;;;2.10;0.80;;;;;;;24.33;38.77;100161.72;4916811;29;20051;-83
2021/07/09 08:30:11;;;;;;;2.30;0.60;;;;;;;24.82;38.82;100165.16;4917214;29;20071;-83
2021/07/09 08:32:38;;;;;;;0.50;0.50;;;;;;;24.47;39.11;100161.91;4917086;29;20506;-83
2021/07/09 08:35:06;;;;;;;0.70;0.70;;;;;;;24.75;38.70;100166.84;4917275;29;20086;-83
2021/07/09 08:37:51;;;;;;;3.83;0.60;;;;;;;24.32;39.30;100160.88;4916949;29;20043;-84
2021/07/09 08:40:18;;;;;;;0.60;0.60;;;;;;;24.62;38.98;100161.22;4916855;29;20499;-83
2021/07/09 08:42:46;;;;;;;16.08;1.98;;;;;;;24.74;38.91;100160.69;4917176;29;20143;-81
2021/07/09 08:45:13;;;;;;;0.85;0.82;;;;;;;24.77;39.13;100164.88;4916633;29;20083;-82
2021/07/09 08:47:41;;;;;;;3.13;0.60;;;;;;;24.96;38.75;100164.47;4916651;29;20043;-82
2021/07/09 08:50:11;;;;;;;1.65;0.90;;;;;;;24.96;38.23;100163.63;4916423;29;20076;-82
2021/07/09 08:52:42;;;;;;;2.50;1.00;;;;;;;25.00;38.23;100163.13;4916791;29;20092;-82
2021/07/09 08:55:14;;;;;;;5.05;0.85;;;;;;;25.03;38.60;100168.09;4916528;29;20582;-81
2021/07/09 08:57:43;;;;;;;3.67;1.13;;;;;;;24.98;38.30;100169.59;4916929;29;20139;-82
2021/07/09 09:00:21;;;;;;;5.85;1.10;;;;;;;25.05;38.28;100176.78;4915875;29;20052;-81
2021/07/09 09:02:49;;;;;;;4.95;1.00;;;;;;;24.93;37.65;100172.81;4916521;29;20048;-82
2021/07/09 09:05:26;;;;;;;7.22;0.90;;;;;;;25.31;37.28;100181.88;4916417;29;20383;-83
2021/07/09 09:08:15;;;;;;;1.48;0.93;;;;;;;25.32;37.84;100178.19;4916721;29;20410;-83
2021/07/09 09:10:44;;;;;;;1.35;0.70;;;;;;;25.39;37.58;100175.66;4916182;29;20051;-82
2021/07/09 09:13:20;;;;;;;3.40;0.75;;;;;;;24.94;38.31;100179.81;4916367;29;20139;-82
2021/07/09 09:16:10;;;;;;;2.78;0.70;;;;;;;25.29;37.65;100188.38;4914895;29;20045;-82
2021/07/09 09:18:42;;;;;;;4.40;1.30;;;;;;;25.40;37.68;100193.31;4916670;29;20131;-83
2021/07/09 09:21:12;;;;;;;0.82;0.63;;;;;;;25.11;37.55;100193.13;4916481;29;20051;-82
2021/07/09 09:23:51;;;;;;;1.17;0.60;;;;;;;25.40;36.85;100189.81;4916384;29;20054;-81
2021/07/09 09:26:45;;;;;;;8.50;0.98;;;;;;;25.33;37.96;100184.34;4915862;29;20073;-82
2021/07/09 09:29:14;;;;;;;;;;;;;;;25.41;37.65;100175.47;4916475;29;20139;-80
2021/07/09 09:31:42;;;;;;;2.22;0.90;;;;;;;25.45;37.97;100172.28;4922414;29;20297;-86
2021/07/09 09:34:09;;;;;;;5.75;0.90;;;;;;;25.61;37.72;100174.84;4933616;29;20043;-86
2021/07/09 09:36:35;;;;;;;2.08;0.88;;;;;;;25.38;37.90;100175.84;4921250;29;20079;-85
2021/07/09 09:39:03;;;;;;;1.00;0.70;;;;;;;25.68;37.20;100176.84;4914360;29;20127;-89
2021/07/09 09:41:30;;;;;;;3.35;0.80;;;;;;;25.69;35.41;100176.66;4919460;29;20032;-85
2021/07/09 09:44:12;;;;;;;2.05;0.98;;;;;;;25.95;35.94;100178.22;4915195;29;20079;-87
2021/07/09 09:46:39;;;;;;;1.08;0.68;;;;;;;25.58;35.88;100180.56;4916197;29;20056;-86
2021/07/09 09:49:12;;;;;;;0.63;0.55;;;;;;;25.71;36.01;100179.97;4915269;29;20048;-88
2021/07/09 09:51:40;;;;;;;4.90;0.68;;;;;;;26.01;35.68;100172.97;4915752;29;21011;-86
2021/07/09 09:54:09;;;;;;;0.60;0.60;;;;;;;26.19;35.52;100174.50;4915373;29;20040;-88
2021/07/09 09:56:48;;;;;;;3.30;0.82;;;;;;;25.95;35.69;100165.69;4915485;29;20099;-89
2021/07/09 09:59:25;;;;;;;0.75;0.68;;;;;;;25.83;36.00;100172.41;4915335;29;20399;-88
2021/07/09 10:02:03;;;;;;;7.78;0.70;;;;;;;25.87;35.38;100171.06;4924690;29;20562;-89
2021/07/09 10:04:32;;;;;;;1.00;0.55;;;;;;;26.12;35.89;100163.72;4921486;29;20130;-88
2021/07/09 10:07:00;;;;;;;0.60;0.60;;;;;;;26.16;35.95;100161.53;4915602;29;20052;-89
2021/07/09 10:09:29;;;;;;;0.50;0.50;;;;;;;26.26;35.81;100154.06;4923921;29;20127;-89
2021/07/09 10:11:58;;;;;;;3.85;0.55;;;;;;;26.30;35.33;100155.38;4930618;29;20046;-93
2021/07/09 10:14:28;;;;;;;4.97;0.93;;;;;;;26.38;35.00;100157.97;4933197;29;20537;-86
2021/07/09 10:17:01;;;;;;;1.17;0.65;;;;;;;26.31;34.23;100157.88;4924352;29;20099;-86
2021/07/09 10:19:37;;;;;;;1.80;1.30;;;;;;;26.38;34.62;100158.81;4918789;29;20052;-86
2021/07/09 10:22:21;;;;;;;0.80;0.60;;;;;;;26.32;34.92;100158.72;4924959;29;20048;-87
2021/07/09 10:24:54;;;;;;;3.50;0.57;;;;;;;26.24;33.99;100159.59;4938335;29;20048;-89
2021/07/09 10:27:24;;;;;;;0.98;0.68;;;;;;;26.58;33.95;100155.63;4936967;29;20098;-87
2021/07/09 10:29:54;;;;;;;2.88;0.70;;;;;;;26.64;33.51;100147.72;4937066;29;20043;-84
2021/07/09 10:32:46;;;;;;;3.28;0.70;;;;;;;26.46;35.28;100149.91;4935688;29;20451;-85
2021/07/09 10:35:42;;;;;;;3.00;0.60;;;;;;;26.36;35.76;100149.28;4936427;29;20064;-86
2021/07/09 10:38:14;;;;;;;5.15;0.60;;;;;;;26.60;34.66;100148.28;4919679;29;20040;-84
2021/07/09 10:40:42;;;;;;;0.75;0.60;;;;;;;26.43;33.66;100154.78;4932222;29;20063;-86
2021/07/09 10:43:12;;;;;;;2.25;0.65;;;;;;;26.51;33.46;100150.19;4932692;29;20039;-84
2021/07/09 10:45:40;;;;;;;0.60;0.60;;;;;;;26.61;34.48;100149.94;4934395;29;20122;-83
2021/07/09 10:48:09;;;;;;;2.50;0.45;;;;;;;26.76;33.21;100147.28;4935875;29;20062;-86
2021/07/09 10:50:49;;;;;;;4.47;1.42;;;;;;;26.72;34.08;100143.28;4922147;29;20047;-83
2021/07/09 10:53:17;;;;;;;4.65;0.70;;;;;;;26.58;33.72;100142.25;4930120;29;20399;-81
2021/07/09 10:56:00;;;;;;;0.57;0.57;;;;;;;26.75;33.82;100149.13;4932371;29;20407;-81
2021/07/09 10:58:41;;;;;;;1.00;0.70;;;;;;;26.78;34.19;100148.72;4922278;29;20055;-85
2021/07/09 11:01:12;;;;;;;2.33;1.10;;;;;;;26.94;39.79;100145.03;4921698;29;20046;-90
2021/07/09 11:03:45;;;;;;;2.60;0.95;;;;;;;27.10;33.01;100134.16;4924614;29;20044;-90
2021/07/09 11:06:17;;;;;;;0.90;0.52;;;;;;;27.18;38.91;100135.09;4930868;29;20047;-85
2021/07/09 11:08:53;;;;;;;5.13;1.30;;;;;;;27.02;37.07;100133.44;4934867;29;20043;-90
2021/07/09 11:11:30;;;;;;;3.03;1.05;;;;;;;27.30;35.15;100121.03;4929086;29;20048;-83
2021/07/09 11:14:00;;;;;;;4.05;0.98;;;;;;;27.18;34.24;100122.56;4929849;29;20064;-84
2021/07/09 11:16:45;;;;;;;4.13;0.80;;;;;;;27.35;33.75;100123.16;4922534;29;20096;-84
2021/07/09 11:19:27;;;;;;;1.38;0.70;;;;;;;27.26;34.11;100127.78;4935913;29;20040;-86
2021/07/09 11:22:04;;;;;;;2.75;0.50;;;;;;;27.62;29.90;100119.75;4922191;29;20119;-84
2021/07/09 11:24:57;;;;;;;1.50;0.65;;;;;;;27.54;29.76;100119.88;4927188;29;20486;-84
2021/07/09 11:27:28;;;;;;;0.95;0.60;;;;;;;27.43;31.63;100117.66;4933956;29;20406;-81
2021/07/09 11:30:01;;;;;;;1.33;0.40;;;;;;;27.57;29.55;100114.13;4937649;29;20434;-81
2021/07/09 11:32:34;;;;;;;0.73;0.60;;;;;;;27.57;29.38;100110.63;4931378;29;20043;-83
2021/07/09 11:35:02;;;;;;;0.95;0.52;;;;;;;27.83;29.19;100107.41;4929791;29;20040;-82
2021/07/09 11:37:31;;;;;;;2.30;0.50;;;;;;;27.60;29.63;100104.91;4932439;29;20060;-85